createdAt,value
2019-04-06T00:00:11.579Z,7.76
2019-04-06T00:03:25.177Z,7.74
2019-04-06T00:06:39.003Z,7.72
2019-04-06T00:09:52.700Z,7.71
2019-04-06T00:13:06.200Z,7.69
2019-04-06T00:16:19.738Z,7.71
2019-04-06T00:19:33.336Z,7.68
2019-04-06T00:22:47.069Z,7.66
2019-04-06T00:26:00.551Z,7.64
2019-04-06T00:29:14.543Z,7.64
2019-04-06T00:32:31.919Z,7.63
2019-04-06T00:35:45.429Z,7.60
2019-04-06T00:38:59.233Z,7.58
2019-04-06T00:42:12.741Z,7.57
2019-04-06T00:45:26.242Z,7.57
2019-04-06T00:48:40.026Z,7.52
2019-04-06T00:51:53.895Z,7.49
2019-04-06T00:55:07.872Z,7.37
2019-04-06T00:58:21.412Z,7.30
2019-04-06T01:01:35.463Z,7.22
2019-04-06T01:04:49.157Z,7.21
2019-04-06T01:08:03.321Z,7.18
2019-04-06T01:11:17.147Z,7.18
2019-04-06T01:14:30.817Z,7.19
2019-04-06T01:17:44.348Z,7.20
2019-04-06T01:20:57.859Z,7.20
2019-04-06T01:24:11.978Z,7.18
2019-04-06T01:27:25.505Z,7.21
2019-04-06T01:30:39.548Z,7.22
2019-04-06T01:33:53.295Z,7.20
2019-04-06T01:37:07.232Z,7.21
2019-04-06T01:40:21.157Z,7.18
2019-04-06T01:43:34.753Z,7.17
2019-04-06T01:46:48.370Z,7.16
2019-04-06T01:50:02.100Z,7.16
2019-04-06T01:53:15.936Z,7.12
2019-04-06T01:56:29.946Z,7.09
2019-04-06T01:59:43.339Z,7.11
2019-04-06T02:02:56.890Z,7.15
2019-04-06T02:06:10.494Z,7.07
2019-04-06T02:09:24.013Z,7.02
2019-04-06T02:12:37.586Z,7.05
2019-04-06T02:15:51.197Z,7.08
2019-04-06T02:19:04.855Z,7.10
2019-04-06T02:22:18.339Z,7.04
2019-04-06T02:25:31.852Z,6.94
2019-04-06T02:28:45.587Z,6.97
2019-04-06T02:32:24.562Z,6.99
2019-04-06T02:36:07.144Z,7.05
2019-04-06T02:39:31.323Z,7.05
2019-04-06T02:42:48.634Z,7.01
2019-04-06T02:46:02.502Z,7.02
2019-04-06T02:49:16.009Z,6.94
2019-04-06T02:52:29.473Z,6.93
2019-04-06T02:55:42.936Z,6.95
2019-04-06T02:58:56.673Z,6.93
2019-04-06T03:02:10.409Z,6.94
2019-04-06T03:05:24.104Z,6.93
2019-04-06T03:08:37.634Z,6.84
2019-04-06T03:11:51.340Z,6.84
2019-04-06T03:15:06.284Z,6.77
2019-04-06T03:18:20.095Z,6.81
2019-04-06T03:21:33.737Z,6.84
2019-04-06T03:24:47.631Z,6.86
2019-04-06T03:28:01.892Z,6.81
2019-04-06T03:31:22.801Z,6.77
2019-04-06T03:34:33.531Z,6.63
2019-04-06T03:37:47.239Z,6.31
2019-04-06T03:41:00.921Z,6.12
2019-04-06T03:44:14.742Z,6.16
2019-04-06T03:47:28.402Z,6.18
2019-04-06T03:50:42.158Z,6.15
2019-04-06T03:53:55.896Z,6.10
2019-04-06T03:57:16.020Z,6.07
2019-04-06T04:00:24.820Z,6.02
2019-04-06T04:03:38.272Z,6.00
2019-04-06T04:06:51.847Z,5.98
2019-04-06T04:10:06.310Z,5.88
2019-04-06T04:13:20.069Z,5.82
2019-04-06T04:16:34.152Z,5.86
2019-04-06T04:19:47.960Z,5.79
2019-04-06T04:23:01.445Z,5.72
2019-04-06T04:26:14.931Z,5.75
2019-04-06T04:29:28.428Z,5.67
2019-04-06T04:32:42.329Z,5.57
2019-04-06T04:35:56.266Z,5.44
2019-04-06T04:39:10.145Z,5.32
2019-04-06T04:42:23.663Z,5.24
2019-04-06T04:45:37.153Z,5.18
2019-04-06T04:48:50.607Z,5.19
2019-04-06T04:52:04.443Z,5.15
2019-04-06T04:55:18.217Z,5.06
2019-04-06T04:58:31.715Z,4.97
2019-04-06T05:01:45.543Z,4.94
2019-04-06T05:04:59.825Z,4.85
2019-04-06T05:08:13.327Z,4.83
2019-04-06T05:11:26.906Z,4.78
2019-04-06T05:14:56.854Z,4.63
2019-04-06T05:18:10.529Z,4.65
2019-04-06T05:21:24.054Z,4.70
2019-04-06T05:24:37.545Z,4.77
2019-04-06T05:27:52.909Z,4.89
2019-04-06T05:31:06.605Z,4.91
2019-04-06T05:34:20.181Z,4.89
2019-04-06T05:37:33.917Z,4.90
2019-04-06T05:40:47.734Z,4.80
2019-04-06T05:44:01.238Z,4.76
2019-04-06T05:47:15.010Z,4.89
2019-04-06T05:50:28.600Z,4.80
2019-04-06T05:53:42.120Z,4.91
2019-04-06T05:56:55.620Z,5.08
2019-04-06T06:00:10.546Z,5.04
2019-04-06T06:03:25.174Z,5.03
2019-04-06T06:06:39.185Z,4.92
2019-04-06T06:09:52.693Z,5.01
2019-04-06T06:13:06.294Z,5.01
2019-04-06T06:16:20.565Z,5.12
2019-04-06T06:19:34.128Z,5.25
2019-04-06T06:22:47.948Z,5.37
2019-04-06T06:26:01.818Z,5.47
2019-04-06T06:29:15.300Z,5.59
2019-04-06T06:32:31.014Z,5.62
2019-04-06T06:35:44.796Z,5.75
2019-04-06T06:38:58.256Z,5.89
2019-04-06T06:42:11.755Z,6.00
2019-04-06T06:45:25.243Z,6.07
2019-04-06T06:48:38.761Z,6.02
2019-04-06T06:51:52.762Z,5.97
2019-04-06T06:55:07.292Z,5.88
2019-04-06T06:58:25.674Z,6.10
2019-04-06T07:01:36.218Z,6.19
2019-04-06T07:04:49.828Z,6.25
2019-04-06T07:08:03.428Z,6.22
2019-04-06T07:11:17.019Z,6.41
2019-04-06T07:14:33.974Z,6.59
2019-04-06T07:17:51.368Z,6.54
2019-04-06T07:21:08.843Z,6.57
2019-04-06T07:24:23.905Z,6.61
2019-04-06T07:27:39.543Z,6.84
2019-04-06T07:30:53.951Z,7.13
2019-04-06T07:34:07.664Z,7.18
2019-04-06T07:37:21.191Z,7.23
2019-04-06T07:40:34.680Z,7.41
2019-04-06T07:43:48.191Z,7.32
2019-04-06T07:47:02.080Z,7.37
2019-04-06T07:50:15.999Z,7.41
2019-04-06T07:53:29.616Z,7.48
2019-04-06T07:56:43.703Z,7.56
2019-04-06T07:59:57.584Z,7.61
2019-04-06T08:03:11.134Z,7.68
2019-04-06T08:06:24.909Z,7.77
2019-04-06T08:09:38.660Z,8.04
2019-04-06T08:12:55.317Z,8.32
2019-04-06T08:16:12.117Z,8.38
2019-04-06T08:19:25.916Z,8.63
2019-04-06T08:22:39.417Z,9.05
2019-04-06T08:25:52.902Z,9.39
2019-04-06T08:29:06.848Z,9.70
2019-04-06T08:32:20.578Z,10.00
2019-04-06T08:35:34.054Z,10.24
2019-04-06T08:38:48.017Z,10.26
2019-04-06T08:42:01.953Z,10.24
2019-04-06T08:45:16.166Z,10.50
2019-04-06T08:48:29.704Z,10.63
2019-04-06T08:51:43.212Z,10.66
2019-04-06T08:54:57.109Z,10.92
2019-04-06T08:58:10.709Z,11.26
2019-04-06T09:01:24.427Z,11.28
2019-04-06T09:04:37.924Z,11.63
2019-04-06T09:07:51.813Z,12.02
2019-04-06T09:11:05.306Z,12.40
2019-04-06T09:14:19.120Z,12.51
2019-04-06T09:17:32.916Z,12.43
2019-04-06T09:20:46.418Z,12.55
2019-04-06T09:23:59.877Z,12.42
2019-04-06T09:27:13.446Z,12.59
2019-04-06T09:30:27.300Z,12.91
2019-04-06T09:33:41.147Z,12.97
2019-04-06T09:36:54.827Z,12.94
2019-04-06T09:40:08.405Z,13.08
2019-04-06T09:43:21.948Z,13.20
2019-04-06T09:46:54.525Z,13.11
2019-04-06T09:50:36.799Z,13.24
2019-04-06T09:54:09.179Z,13.80
2019-04-06T09:57:48.491Z,14.32
2019-04-06T10:01:25.725Z,14.25
2019-04-06T10:04:53.192Z,14.36
2019-04-06T10:08:27.124Z,14.62
2019-04-06T10:11:49.210Z,14.68
2019-04-06T10:15:26.541Z,14.61
2019-04-06T10:18:52.862Z,14.87
2019-04-06T10:22:20.048Z,15.14
2019-04-06T10:25:58.094Z,15.66
2019-04-06T10:29:28.537Z,15.68
2019-04-06T10:32:57.638Z,14.76
2019-04-06T10:36:25.809Z,14.72
2019-04-06T10:39:58.986Z,14.67
2019-04-06T10:43:28.240Z,15.38
2019-04-06T10:47:00.078Z,16.04
2019-04-06T10:50:19.309Z,16.72
2019-04-06T10:53:50.135Z,16.89
2019-04-06T10:57:35.718Z,16.85
2019-04-06T11:01:07.372Z,17.49
2019-04-06T11:04:39.266Z,17.78
2019-04-06T11:08:12.669Z,18.00
2019-04-06T11:11:44.929Z,18.13
2019-04-06T11:15:18.084Z,18.50
2019-04-06T11:19:10.230Z,18.90
2019-04-06T11:22:44.662Z,18.47
2019-04-06T11:26:33.296Z,18.18
2019-04-06T11:30:11.253Z,18.36
2019-04-06T11:33:21.997Z,18.25
2019-04-06T11:36:44.379Z,18.34
2019-04-06T11:40:18.128Z,17.97
2019-04-06T11:43:40.765Z,17.23
2019-04-06T11:47:13.769Z,17.22
2019-04-06T11:50:43.181Z,18.06
2019-04-06T11:54:04.819Z,18.29
2019-04-06T11:57:38.442Z,18.13
2019-04-06T12:01:07.644Z,18.86
2019-04-06T12:04:58.953Z,19.23
2019-04-06T12:08:24.296Z,19.96
2019-04-06T12:11:50.943Z,19.93
2019-04-06T12:15:29.037Z,19.86
2019-04-06T12:18:48.655Z,20.06
2019-04-06T12:22:24.384Z,19.46
2019-04-06T12:26:00.485Z,18.72
2019-04-06T12:29:33.142Z,18.55
2019-04-06T12:32:54.600Z,18.11
2019-04-06T12:36:28.000Z,17.16
2019-04-06T12:39:53.711Z,16.95
2019-04-06T12:43:19.164Z,16.48
2019-04-06T12:46:52.083Z,16.13
2019-04-06T12:50:24.239Z,15.74
2019-04-06T12:54:09.308Z,15.66
2019-04-06T12:57:42.763Z,15.80
2019-04-06T13:01:34.160Z,15.52
2019-04-06T13:05:07.092Z,15.40
2019-04-06T13:08:29.323Z,15.38
2019-04-06T13:11:51.070Z,15.44
2019-04-06T13:15:36.914Z,15.50
2019-04-06T13:19:10.402Z,15.36
2019-04-06T13:22:34.292Z,15.03
2019-04-06T13:25:55.965Z,14.79
2019-04-06T13:29:21.342Z,14.71
2019-04-06T13:32:57.721Z,14.70
2019-04-06T13:36:46.428Z,15.02
2019-04-06T13:40:31.842Z,15.32
2019-04-06T13:44:14.088Z,15.49
2019-04-06T13:47:40.183Z,15.56
2019-04-06T13:51:03.540Z,15.93
2019-04-06T13:54:52.130Z,16.07
2019-04-06T13:58:23.958Z,16.02
2019-04-06T14:01:57.087Z,16.08
2019-04-06T14:05:26.606Z,16.40
2019-04-06T14:08:58.703Z,16.39
2019-04-06T14:12:43.767Z,16.27
2019-04-06T14:16:09.530Z,16.28
2019-04-06T14:19:41.572Z,16.54
2019-04-06T14:23:23.702Z,16.76
2019-04-06T14:27:04.190Z,16.79
2019-04-06T14:30:24.869Z,16.57
2019-04-06T14:33:46.153Z,16.88
2019-04-06T14:37:38.132Z,17.00
2019-04-06T14:41:12.639Z,16.86
2019-04-06T14:44:35.313Z,16.70
2019-04-06T14:48:09.403Z,16.83
2019-04-06T14:51:33.090Z,17.30
2019-04-06T14:55:06.556Z,17.19
2019-04-06T14:58:58.114Z,17.36
2019-04-06T15:02:21.523Z,17.62
2019-04-06T15:05:54.101Z,17.51
2019-04-06T15:09:27.818Z,17.25
2019-04-06T15:13:00.997Z,17.02
2019-04-06T15:16:30.735Z,17.14
2019-04-06T15:19:53.953Z,17.36
2019-04-06T15:23:24.464Z,17.59
2019-04-06T15:26:54.748Z,17.75
2019-04-06T15:30:31.473Z,18.17
2019-04-06T15:33:59.513Z,19.01
2019-04-06T15:37:29.204Z,19.31
2019-04-06T15:40:49.392Z,19.84
2019-04-06T15:44:17.350Z,20.06
2019-04-06T15:47:53.834Z,19.38
2019-04-06T15:51:36.242Z,19.00
2019-04-06T15:54:58.443Z,18.74
2019-04-06T15:58:31.882Z,18.67
2019-04-06T16:02:01.622Z,18.36
2019-04-06T16:05:17.242Z,18.28
2019-04-06T16:08:49.492Z,18.25
2019-04-06T16:12:21.617Z,18.08
2019-04-06T16:15:53.845Z,18.01
2019-04-06T16:19:35.873Z,18.01
2019-04-06T16:23:03.095Z,17.67
2019-04-06T16:26:22.734Z,17.46
2019-04-06T16:30:14.141Z,17.34
2019-04-06T16:33:38.039Z,17.18
2019-04-06T16:37:15.011Z,17.02
2019-04-06T16:40:48.315Z,17.03
2019-04-06T16:44:33.858Z,17.07
2019-04-06T16:47:53.631Z,16.92
2019-04-06T16:51:26.228Z,16.84
2019-04-06T16:54:47.474Z,16.69
2019-04-06T16:58:20.746Z,16.61
2019-04-06T17:01:40.079Z,16.53
2019-04-06T17:05:16.608Z,16.37
2019-04-06T17:08:45.934Z,16.29
2019-04-06T17:12:17.856Z,16.11
2019-04-06T17:15:56.007Z,15.98
2019-04-06T17:19:28.135Z,15.77
2019-04-06T17:22:58.027Z,15.56
2019-04-06T17:26:20.466Z,15.34
2019-04-06T17:29:52.386Z,15.05
2019-04-06T17:33:12.618Z,14.85
2019-04-06T17:36:49.174Z,14.44
2019-04-06T17:40:23.515Z,14.18
2019-04-06T17:44:12.585Z,14.12
2019-04-06T17:47:44.112Z,14.00
2019-04-06T17:51:02.323Z,13.81
2019-04-06T17:54:38.623Z,13.52
2019-04-06T17:58:17.620Z,13.43
2019-04-06T18:01:53.136Z,13.27
2019-04-06T18:05:29.356Z,13.13
2019-04-06T18:08:51.104Z,13.05
2019-04-06T18:12:28.082Z,13.00
2019-04-06T18:15:42.139Z,12.75
2019-04-06T18:18:55.647Z,12.60
2019-04-06T18:22:09.178Z,12.56
2019-04-06T18:25:22.754Z,12.54
2019-04-06T18:28:36.327Z,12.31
2019-04-06T18:32:12.743Z,12.12
2019-04-06T18:35:27.188Z,11.94
2019-04-06T18:38:47.846Z,11.70
2019-04-06T18:42:01.912Z,11.69
2019-04-06T18:45:15.499Z,11.67
2019-04-06T18:48:29.300Z,11.65
2019-04-06T18:51:43.372Z,11.64
2019-04-06T18:54:57.397Z,11.63
2019-04-06T18:58:13.052Z,11.58
2019-04-06T19:01:26.779Z,11.52
2019-04-06T19:04:40.613Z,11.45
2019-04-06T19:07:54.090Z,11.33
2019-04-06T19:11:08.130Z,11.26
2019-04-06T19:14:21.560Z,11.17
2019-04-06T19:17:35.077Z,11.12
2019-04-06T19:20:48.575Z,11.05
2019-04-06T19:24:02.332Z,11.02
2019-04-06T19:27:15.806Z,10.97
2019-04-06T19:30:30.356Z,10.90
2019-04-06T19:33:44.100Z,10.82
2019-04-06T19:36:57.954Z,10.77
2019-04-06T19:40:12.358Z,10.71
2019-04-06T19:43:26.734Z,10.68
2019-04-06T19:46:41.297Z,10.56
2019-04-06T19:49:55.120Z,10.51
2019-04-06T19:53:09.019Z,10.49
2019-04-06T19:56:23.307Z,10.47
2019-04-06T19:59:37.307Z,10.48
2019-04-06T20:02:50.861Z,10.46
2019-04-06T20:06:04.810Z,10.44
2019-04-06T20:09:18.694Z,10.38
2019-04-06T20:12:32.570Z,10.24
2019-04-06T20:15:46.481Z,10.13
2019-04-06T20:18:59.994Z,10.01
2019-04-06T20:22:14.882Z,9.98
2019-04-06T20:25:28.740Z,9.97
2019-04-06T20:28:42.256Z,9.89
2019-04-06T20:31:56.349Z,9.63
2019-04-06T20:35:10.948Z,9.69
2019-04-06T20:38:24.715Z,9.77
2019-04-06T20:41:38.305Z,9.83
2019-04-06T20:44:52.680Z,9.89
2019-04-06T20:48:06.253Z,9.85
2019-04-06T20:51:39.479Z,9.90
2019-04-06T20:54:53.749Z,9.92
2019-04-06T20:58:07.381Z,9.88
2019-04-06T21:01:21.112Z,9.85
2019-04-06T21:04:34.609Z,9.85
2019-04-06T21:07:48.535Z,9.76
2019-04-06T21:11:02.192Z,9.77
2019-04-06T21:14:16.134Z,9.79
2019-04-06T21:17:29.629Z,9.81
2019-04-06T21:20:43.189Z,9.84
2019-04-06T21:23:56.712Z,9.88
2019-04-06T21:27:10.713Z,9.92
2019-04-06T21:30:24.627Z,9.76
2019-04-06T21:33:38.591Z,9.85
2019-04-06T21:36:52.772Z,9.87
2019-04-06T21:40:06.817Z,9.89
2019-04-06T21:43:20.568Z,9.75
2019-04-06T21:46:34.294Z,9.65
2019-04-06T21:49:48.011Z,9.72
2019-04-06T21:53:01.749Z,9.78
2019-04-06T21:56:19.098Z,9.81
2019-04-06T21:59:33.871Z,9.85
2019-04-06T22:02:48.596Z,9.93
2019-04-06T22:06:02.509Z,9.90
2019-04-06T22:09:16.404Z,9.94
2019-04-06T22:12:29.961Z,9.95
2019-04-06T22:15:43.875Z,9.98
2019-04-06T22:18:57.435Z,10.00
2019-04-06T22:22:11.115Z,9.96
2019-04-06T22:25:44.945Z,9.97
2019-04-06T22:28:59.109Z,9.95
2019-04-06T22:32:13.069Z,9.92
2019-04-06T22:35:26.540Z,9.85
2019-04-06T22:38:40.168Z,9.76
2019-04-06T22:41:53.931Z,9.67
2019-04-06T22:45:09.695Z,9.59
2019-04-06T22:48:23.193Z,9.53
2019-04-06T22:51:36.646Z,9.42
2019-04-06T22:54:50.280Z,9.29
2019-04-06T22:58:04.104Z,9.23
2019-04-06T23:01:18.586Z,9.13
2019-04-06T23:04:47.221Z,9.04
2019-04-06T23:07:53.367Z,8.88
2019-04-06T23:11:07.149Z,8.78
2019-04-06T23:14:20.893Z,8.71
2019-04-06T23:17:34.736Z,8.64
2019-04-06T23:20:48.344Z,8.58
2019-04-06T23:24:03.648Z,8.51
2019-04-06T23:27:17.456Z,8.40
2019-04-06T23:30:31.760Z,8.32
2019-04-06T23:33:45.934Z,8.19
2019-04-06T23:37:00.641Z,8.13
2019-04-06T23:40:15.162Z,8.08
2019-04-06T23:43:28.982Z,8.05
2019-04-06T23:46:43.456Z,8.05
2019-04-06T23:49:57.435Z,8.01
2019-04-06T23:53:11.109Z,8.02
2019-04-06T23:56:25.364Z,7.85
2019-04-06T23:59:39.528Z,7.89
